sensor_id;sensor_type;location;lat;lon;timestamp;pressure;altitude;pressure_sealevel;temperature;humidity
7586;BME280;12459;42.646;23.292;2023-07-29T00:09:41;93437.03;;;18.04;83.58
7586;BME280;12459;42.646;23.292;2023-07-29T00:24:43;93372.88;;;17.55;81.21
7586;BME280;12459;42.646;23.292;2023-07-29T00:39:45;93342.91;;;17.13;83.28
7586;BME280;12459;42.646;23.292;2023-07-29T00:54:46;93399.97;;;17.46;85.06
7586;BME280;12459;42.646;23.292;2023-07-29T01:24:53;93369.34;;;16.81;86.50
7586;BME280;12459;42.646;23.292;2023-07-29T01:39:56;93377.19;;;16.57;87.64
7586;BME280;12459;42.646;23.292;2023-07-29T01:54:58;93472.50;;;17.33;88.20
7586;BME280;12459;42.646;23.292;2023-07-29T02:10:00;93546.41;;;17.82;88.70
7586;BME280;12459;42.646;23.292;2023-07-29T02:25:02;93328.59;;;15.74;90.27
7586;BME280;12459;42.646;23.292;2023-07-29T02:40:05;93423.47;;;16.81;90.98
7586;BME280;12459;42.646;23.292;2023-07-29T02:55:07;93592.66;;;17.97;93.36
7586;BME280;12459;42.646;23.292;2023-07-29T03:10:09;93402.56;;;16.20;95.47
7586;BME280;12459;42.646;23.292;2023-07-29T03:25:13;93335.44;;;15.87;94.82
7586;BME280;12459;42.646;23.292;2023-07-29T03:40:15;93393.06;;;16.46;95.81
7586;BME280;12459;42.646;23.292;2023-07-29T03:55:17;93481.53;;;17.39;94.72
7586;BME280;12459;42.646;23.292;2023-07-29T04:10:18;93315.38;;;17.23;87.61
7586;BME280;12459;42.646;23.292;2023-07-29T04:25:20;93605.56;;;20.05;83.16
7586;BME280;12459;42.646;23.292;2023-07-29T04:40:22;93623.22;;;20.10;81.76
7586;BME280;12459;42.646;23.292;2023-07-29T04:55:24;93386.53;;;18.76;79.34
7586;BME280;12459;42.646;23.292;2023-07-29T05:10:26;93075.22;;;17.63;79.25
7586;BME280;12459;42.646;23.292;2023-07-29T05:25:28;93654.41;;;22.34;75.27
7586;BME280;12459;42.646;23.292;2023-07-29T05:40:30;93598.28;;;22.93;71.43
7586;BME280;12459;42.646;23.292;2023-07-29T05:55:32;93526.59;;;23.10;66.32
7586;BME280;12459;42.646;23.292;2023-07-29T06:10:34;93609.72;;;24.24;62.67
7586;BME280;12459;42.646;23.292;2023-07-29T06:25:35;93515.84;;;24.17;62.29
7586;BME280;12459;42.646;23.292;2023-07-29T06:40:37;93506.81;;;24.00;60.28
7586;BME280;12459;42.646;23.292;2023-07-29T06:55:39;93556.16;;;24.11;60.88
7586;BME280;12459;42.646;23.292;2023-07-29T07:10:41;93408.19;;;23.89;57.92
7586;BME280;12459;42.646;23.292;2023-07-29T07:25:43;93364.38;;;23.24;60.35
7586;BME280;12459;42.646;23.292;2023-07-29T07:40:55;93575.97;;;25.25;56.54
7586;BME280;12459;42.646;23.292;2023-07-29T07:55:57;93391.41;;;24.63;56.21
7586;BME280;12459;42.646;23.292;2023-07-29T08:11:00;93608.59;;;26.35;54.49
7586;BME280;12459;42.646;23.292;2023-07-29T08:26:04;93621.50;;;26.62;53.38
7586;BME280;12459;42.646;23.292;2023-07-29T08:42:02;93619.72;;;26.70;51.80
7586;BME280;12459;42.646;23.292;2023-07-29T08:56:55;93481.06;;;25.91;47.22
7586;BME280;12459;42.646;23.292;2023-07-29T09:11:58;93609.53;;;27.48;49.05
7586;BME280;12459;42.646;23.292;2023-07-29T09:26:59;93371.97;;;25.86;45.21
7586;BME280;12459;42.646;23.292;2023-07-29T09:42:01;93582.63;;;27.95;44.20
7586;BME280;12459;42.646;23.292;2023-07-29T09:57:06;93534.94;;;27.81;42.43
7586;BME280;12459;42.646;23.292;2023-07-29T10:12:09;93324.38;;;26.79;43.55
7586;BME280;12459;42.646;23.292;2023-07-29T10:27:11;93325.19;;;27.28;42.62
7586;BME280;12459;42.646;23.292;2023-07-29T10:42:16;93475.16;;;28.95;39.98
7586;BME280;12459;42.646;23.292;2023-07-29T10:57:38;93357.47;;;28.97;40.90
7586;BME280;12459;42.646;23.292;2023-07-29T11:12:47;93439.13;;;29.91;37.25
7586;BME280;12459;42.646;23.292;2023-07-29T11:27:52;93274.06;;;29.17;38.00
7586;BME280;12459;42.646;23.292;2023-07-29T11:42:54;93413.88;;;30.60;34.77
7586;BME280;12459;42.646;23.292;2023-07-29T11:57:57;93417.72;;;30.44;36.50
7586;BME280;12459;42.646;23.292;2023-07-29T12:13:02;93410.81;;;30.37;34.86
7586;BME280;12459;42.646;23.292;2023-07-29T12:28:06;93441.91;;;30.30;36.07
7586;BME280;12459;42.646;23.292;2023-07-29T12:43:09;93253.38;;;28.52;34.56
7586;BME280;12459;42.646;23.292;2023-07-29T12:58:10;93377.91;;;29.86;34.75
7586;BME280;12459;42.646;23.292;2023-07-29T13:13:12;93413.00;;;29.65;33.75
7586;BME280;12459;42.646;23.292;2023-07-29T13:28:14;93215.72;;;28.42;33.06
7586;BME280;12459;42.646;23.292;2023-07-29T13:43:16;93289.09;;;28.90;33.16
7586;BME280;12459;42.646;23.292;2023-07-29T13:58:17;93159.91;;;28.04;34.02
7586;BME280;12459;42.646;23.292;2023-07-29T14:13:19;93224.50;;;28.40;34.13
7586;BME280;12459;42.646;23.292;2023-07-29T14:28:21;93363.59;;;29.62;34.73
7586;BME280;12459;42.646;23.292;2023-07-29T14:43:23;93272.28;;;28.75;36.15
7586;BME280;12459;42.646;23.292;2023-07-29T14:58:25;93259.81;;;28.42;40.29
7586;BME280;12459;42.646;23.292;2023-07-29T15:13:27;93216.88;;;27.45;40.82
7586;BME280;12459;42.646;23.292;2023-07-29T15:28:28;93225.88;;;27.26;42.33
7586;BME280;12459;42.646;23.292;2023-07-29T15:43:30;93191.72;;;26.92;43.15
7586;BME280;12459;42.646;23.292;2023-07-29T15:58:32;93428.84;;;28.37;44.75
7586;BME280;12459;42.646;23.292;2023-07-29T16:13:34;93389.56;;;27.69;45.65
7586;BME280;12459;42.646;23.292;2023-07-29T16:28:35;93303.53;;;26.35;52.97
7586;BME280;12459;42.646;23.292;2023-07-29T16:43:37;93222.28;;;25.27;54.96
7586;BME280;12459;42.646;23.292;2023-07-29T16:58:39;93478.22;;;26.71;52.61
7586;BME280;12459;42.646;23.292;2023-07-29T17:13:40;93331.03;;;25.30;54.76
7586;BME280;12459;42.646;23.292;2023-07-29T17:28:42;93307.47;;;24.49;59.70
7586;BME280;12459;42.646;23.292;2023-07-29T17:43:44;93433.03;;;24.67;59.78
7586;BME280;12459;42.646;23.292;2023-07-29T17:58:49;93275.34;;;23.17;60.07
7586;BME280;12459;42.646;23.292;2023-07-29T18:13:51;93438.84;;;23.99;61.32
7586;BME280;12459;42.646;23.292;2023-07-29T18:28:53;93303.91;;;22.74;59.50
7586;BME280;12459;42.646;23.292;2023-07-29T18:43:55;93473.66;;;23.50;60.29
7586;BME280;12459;42.646;23.292;2023-07-29T18:58:59;93350.38;;;22.42;59.15
7586;BME280;12459;42.646;23.292;2023-07-29T19:14:01;93352.09;;;22.40;61.41
7586;BME280;12459;42.646;23.292;2023-07-29T19:29:06;93527.69;;;23.55;63.18
7586;BME280;12459;42.646;23.292;2023-07-29T19:44:07;93448.03;;;22.53;66.34
7586;BME280;12459;42.646;23.292;2023-07-29T19:59:23;93467.44;;;22.55;69.79
7586;BME280;12459;42.646;23.292;2023-07-29T20:14:42;93587.47;;;22.84;69.59
7586;BME280;12459;42.646;23.292;2023-07-29T20:29:44;93550.22;;;22.41;68.95
7586;BME280;12459;42.646;23.292;2023-07-29T20:44:46;93438.44;;;21.50;71.01
7586;BME280;12459;42.646;23.292;2023-07-29T20:59:48;93446.22;;;21.37;70.24
7586;BME280;12459;42.646;23.292;2023-07-29T21:14:49;93356.56;;;20.54;73.14
7586;BME280;12459;42.646;23.292;2023-07-29T21:29:51;93345.88;;;20.21;72.93
7586;BME280;12459;42.646;23.292;2023-07-29T21:44:53;93413.34;;;20.76;74.21
7586;BME280;12459;42.646;23.292;2023-07-29T21:59:55;93440.28;;;20.74;77.23
7586;BME280;12459;42.646;23.292;2023-07-29T22:14:58;93408.09;;;20.28;78.04
7586;BME280;12459;42.646;23.292;2023-07-29T22:30:00;93420.59;;;20.50;79.25
7586;BME280;12459;42.646;23.292;2023-07-29T22:45:01;93440.97;;;19.86;81.39
7586;BME280;12459;42.646;23.292;2023-07-29T23:00:03;93405.72;;;20.06;78.72
7586;BME280;12459;42.646;23.292;2023-07-29T23:15:06;93372.63;;;19.55;78.38
7586;BME280;12459;42.646;23.292;2023-07-29T23:30:07;93322.75;;;18.95;81.00
7586;BME280;12459;42.646;23.292;2023-07-29T23:45:09;93305.47;;;18.84;79.83
